sensor_id;sensor_type;location;lat;lon;timestamp;pressure;altitude;pressure_sealevel;temperature;humidity
9035;BME280;4552;43.422;24.592;2023-04-02T00:23:54;98788.69;;;11.54;77.05
9035;BME280;4552;43.422;24.592;2023-04-02T00:32:57;98800.09;;;11.53;76.96
9035;BME280;4552;43.422;24.592;2023-04-02T00:35:26;98796.63;;;11.52;76.68
9035;BME280;4552;43.422;24.592;2023-04-02T00:37:55;98802.72;;;11.53;76.85
9035;BME280;4552;43.422;24.592;2023-04-02T00:40:26;98797.38;;;11.56;76.89
9035;BME280;4552;43.422;24.592;2023-04-02T00:42:57;98803.69;;;11.50;77.29
9035;BME280;4552;43.422;24.592;2023-04-02T00:45:27;98802.88;;;11.48;77.16
9035;BME280;4552;43.422;24.592;2023-04-02T00:47:56;98809.41;;;11.61;76.30
9035;BME280;4552;43.422;24.592;2023-04-02T00:50:26;98811.28;;;11.58;76.35
9035;BME280;4552;43.422;24.592;2023-04-02T00:52:55;98803.31;;;11.61;75.71
9035;BME280;4552;43.422;24.592;2023-04-02T00:55:31;98790.31;;;11.58;75.59
9035;BME280;4552;43.422;24.592;2023-04-02T00:58:00;98813.53;;;11.68;74.57
9035;BME280;4552;43.422;24.592;2023-04-02T01:00:29;98794.56;;;11.60;75.16
9035;BME280;4552;43.422;24.592;2023-04-02T01:03:30;98812.56;;;11.71;74.86
9035;BME280;4552;43.422;24.592;2023-04-02T01:06:03;98808.34;;;11.67;75.38
9035;BME280;4552;43.422;24.592;2023-04-02T01:08:46;98811.91;;;11.66;75.58
9035;BME280;4552;43.422;24.592;2023-04-02T01:11:35;98802.31;;;11.65;75.44
9035;BME280;4552;43.422;24.592;2023-04-02T01:14:11;98793.66;;;11.63;75.48
9035;BME280;4552;43.422;24.592;2023-04-02T01:16:48;98816.97;;;11.70;74.97
9035;BME280;4552;43.422;24.592;2023-04-02T01:19:43;98815.13;;;11.72;74.96
9035;BME280;4552;43.422;24.592;2023-04-02T01:22:20;98818.63;;;11.73;74.56
9035;BME280;4552;43.422;24.592;2023-04-02T01:24:48;98820.25;;;11.75;74.16
9035;BME280;4552;43.422;24.592;2023-04-02T01:37:37;98827.97;;;11.80;73.95
9035;BME280;4552;43.422;24.592;2023-04-02T01:40:20;98821.13;;;11.76;74.95
9035;BME280;4552;43.422;24.592;2023-04-02T01:42:54;98835.44;;;11.67;77.33
9035;BME280;4552;43.422;24.592;2023-04-02T01:45:24;98834.66;;;11.39;79.57
9035;BME280;4552;43.422;24.592;2023-04-02T01:47:51;98821.13;;;11.27;81.01
9035;BME280;4552;43.422;24.592;2023-04-02T01:50:26;98834.31;;;11.24;81.84
9035;BME280;4552;43.422;24.592;2023-04-02T01:52:59;98839.75;;;11.18;83.32
9035;BME280;4552;43.422;24.592;2023-04-02T01:55:32;98842.50;;;11.15;83.38
9035;BME280;4552;43.422;24.592;2023-04-02T01:58:00;98835.44;;;11.17;83.49
9035;BME280;4552;43.422;24.592;2023-04-02T02:00:28;98846.84;;;11.14;83.90
9035;BME280;4552;43.422;24.592;2023-04-02T02:02:58;98847.81;;;11.12;84.09
9035;BME280;4552;43.422;24.592;2023-04-02T02:05:26;98842.69;;;11.09;84.45
9035;BME280;4552;43.422;24.592;2023-04-02T02:07:54;98840.72;;;11.15;83.51
9035;BME280;4552;43.422;24.592;2023-04-02T02:10:26;98852.66;;;11.24;82.35
9035;BME280;4552;43.422;24.592;2023-04-02T02:12:54;98850.63;;;11.32;80.75
9035;BME280;4552;43.422;24.592;2023-04-02T02:15:22;98847.84;;;11.36;80.46
9035;BME280;4552;43.422;24.592;2023-04-02T02:17:54;98852.00;;;11.42;79.30
9035;BME280;4552;43.422;24.592;2023-04-02T02:20:25;98852.63;;;11.50;79.29
9035;BME280;4552;43.422;24.592;2023-04-02T02:22:54;98845.63;;;11.50;78.64
9035;BME280;4552;43.422;24.592;2023-04-02T02:25:26;98844.69;;;11.51;78.98
9035;BME280;4552;43.422;24.592;2023-04-02T02:27:58;98845.78;;;11.46;79.55
9035;BME280;4552;43.422;24.592;2023-04-02T02:30:31;98835.34;;;11.44;79.82
9035;BME280;4552;43.422;24.592;2023-04-02T02:33:05;98844.88;;;11.47;78.24
9035;BME280;4552;43.422;24.592;2023-04-02T02:35:38;98834.88;;;11.58;77.14
9035;BME280;4552;43.422;24.592;2023-04-02T02:38:26;98832.41;;;11.53;77.69
9035;BME280;4552;43.422;24.592;2023-04-02T02:41:01;98829.69;;;11.56;77.16
9035;BME280;4552;43.422;24.592;2023-04-02T02:43:30;98827.94;;;11.57;78.16
9035;BME280;4552;43.422;24.592;2023-04-02T02:45:59;98834.88;;;11.58;76.76
9035;BME280;4552;43.422;24.592;2023-04-02T02:48:33;98834.81;;;11.59;76.53
9035;BME280;4552;43.422;24.592;2023-04-02T02:51:06;98828.22;;;11.48;77.39
9035;BME280;4552;43.422;24.592;2023-04-02T02:53:44;98835.84;;;11.55;76.86
9035;BME280;4552;43.422;24.592;2023-04-02T03:19:51;98845.84;;;11.44;78.28
9035;BME280;4552;43.422;24.592;2023-04-02T03:22:25;98849.41;;;11.42;78.86
9035;BME280;4552;43.422;24.592;2023-04-02T03:25:00;98852.94;;;11.41;78.81
9035;BME280;4552;43.422;24.592;2023-04-02T03:38:05;98860.78;;;11.41;79.41
9035;BME280;4552;43.422;24.592;2023-04-02T03:40:36;98865.22;;;11.39;79.41
9035;BME280;4552;43.422;24.592;2023-04-02T03:43:15;98857.53;;;11.34;79.18
9035;BME280;4552;43.422;24.592;2023-04-02T03:45:48;98858.44;;;11.33;79.46
9035;BME280;4552;43.422;24.592;2023-04-02T03:48:22;98867.06;;;11.37;78.74
9035;BME280;4552;43.422;24.592;2023-04-02T03:50:55;98865.22;;;11.39;78.50
9035;BME280;4552;43.422;24.592;2023-04-02T03:53:25;98870.34;;;11.42;77.98
9035;BME280;4552;43.422;24.592;2023-04-02T03:55:54;98869.38;;;11.46;78.37
9035;BME280;4552;43.422;24.592;2023-04-02T04:01:49;98873.78;;;11.44;77.39
9035;BME280;4552;43.422;24.592;2023-04-02T04:04:18;98869.47;;;11.43;77.51
9035;BME280;4552;43.422;24.592;2023-04-02T04:06:48;98879.78;;;11.47;77.69
9035;BME280;4552;43.422;24.592;2023-04-02T04:09:21;98872.97;;;11.42;77.11
9035;BME280;4552;43.422;24.592;2023-04-02T04:11:53;98885.91;;;11.46;77.71
9035;BME280;4552;43.422;24.592;2023-04-02T04:14:31;98887.88;;;11.41;77.61
9035;BME280;4552;43.422;24.592;2023-04-02T04:17:22;98896.13;;;11.54;77.50
9035;BME280;4552;43.422;24.592;2023-04-02T04:20:19;98885.88;;;11.48;77.61
9035;BME280;4552;43.422;24.592;2023-04-02T04:22:49;98892.84;;;11.49;77.21
9035;BME280;4552;43.422;24.592;2023-04-02T04:25:25;98893.94;;;11.42;77.63
9035;BME280;4552;43.422;24.592;2023-04-02T04:28:05;98895.66;;;11.43;77.23
9035;BME280;4552;43.422;24.592;2023-04-02T04:30:44;98905.63;;;11.58;76.65
9035;BME280;4552;43.422;24.592;2023-04-02T04:33:18;98911.69;;;11.60;76.47
9035;BME280;4552;43.422;24.592;2023-04-02T04:35:51;98903.22;;;11.52;76.25
9035;BME280;4552;43.422;24.592;2023-04-02T04:38:26;98916.09;;;11.58;77.02
9035;BME280;4552;43.422;24.592;2023-04-02T04:41:02;98922.81;;;11.66;76.30
9035;BME280;4552;43.422;24.592;2023-04-02T04:50:03;98930.41;;;11.74;75.07
9035;BME280;4552;43.422;24.592;2023-04-02T04:52:36;98927.19;;;11.67;75.92
9035;BME280;4552;43.422;24.592;2023-04-02T04:55:20;98927.59;;;11.80;75.24
9035;BME280;4552;43.422;24.592;2023-04-02T04:57:54;98932.81;;;11.80;75.11
9035;BME280;4552;43.422;24.592;2023-04-02T05:00:27;98929.00;;;11.90;74.27
9035;BME280;4552;43.422;24.592;2023-04-02T05:02:59;98944.06;;;12.08;73.03
9035;BME280;4552;43.422;24.592;2023-04-02T05:05:32;98943.41;;;12.01;72.54
9035;BME280;4552;43.422;24.592;2023-04-02T05:08:05;98952.75;;;12.10;71.96
9035;BME280;4552;43.422;24.592;2023-04-02T05:10:40;98951.28;;;12.01;72.25
9035;BME280;4552;43.422;24.592;2023-04-02T05:13:15;98958.22;;;12.04;72.66
9035;BME280;4552;43.422;24.592;2023-04-02T05:15:49;98964.06;;;12.10;72.53
9035;BME280;4552;43.422;24.592;2023-04-02T05:18:24;98972.91;;;12.08;71.67
9035;BME280;4552;43.422;24.592;2023-04-02T05:20:56;98984.31;;;12.32;71.24
9035;BME280;4552;43.422;24.592;2023-04-02T05:23:27;98972.59;;;12.17;71.83
9035;BME280;4552;43.422;24.592;2023-04-02T05:26:01;98972.44;;;12.21;71.61
9035;BME280;4552;43.422;24.592;2023-04-02T05:46:52;98996.94;;;12.45;70.30
9035;BME280;4552;43.422;24.592;2023-04-02T05:49:28;99005.41;;;12.53;70.33
9035;BME280;4552;43.422;24.592;2023-04-02T05:51:59;99000.31;;;12.72;69.35
9035;BME280;4552;43.422;24.592;2023-04-02T05:54:31;98997.00;;;12.90;68.74
9035;BME280;4552;43.422;24.592;2023-04-02T05:57:02;99006.31;;;13.21;67.49
9035;BME280;4552;43.422;24.592;2023-04-02T05:59:55;99022.03;;;13.44;65.97
9035;BME280;4552;43.422;24.592;2023-04-02T06:02:29;99001.81;;;13.45;65.21
9035;BME280;4552;43.422;24.592;2023-04-02T06:04:59;99023.91;;;13.62;64.46
9035;BME280;4552;43.422;24.592;2023-04-02T06:07:32;99024.88;;;13.81;64.66
9035;BME280;4552;43.422;24.592;2023-04-02T06:10:04;99029.53;;;14.17;62.84
9035;BME280;4552;43.422;24.592;2023-04-02T06:56:51;99046.31;;;14.93;57.57
9035;BME280;4552;43.422;24.592;2023-04-02T06:59:18;99036.34;;;14.99;56.32
9035;BME280;4552;43.422;24.592;2023-04-02T07:01:47;99048.19;;;15.09;57.03
9035;BME280;4552;43.422;24.592;2023-04-02T07:04:17;99048.88;;;15.31;57.42
9035;BME280;4552;43.422;24.592;2023-04-02T07:06:45;99043.47;;;14.97;55.78
9035;BME280;4552;43.422;24.592;2023-04-02T07:09:12;99071.00;;;14.90;55.33
9035;BME280;4552;43.422;24.592;2023-04-02T07:11:39;99062.97;;;14.93;56.58
9035;BME280;4552;43.422;24.592;2023-04-02T07:14:09;99044.53;;;15.12;57.72
9035;BME280;4552;43.422;24.592;2023-04-02T07:16:37;99058.97;;;15.42;56.27
9035;BME280;4552;43.422;24.592;2023-04-02T07:19:04;99070.28;;;15.44;56.52
9035;BME280;4552;43.422;24.592;2023-04-02T07:21:36;99066.28;;;15.35;56.72
9035;BME280;4552;43.422;24.592;2023-04-02T07:24:04;99059.03;;;15.22;58.09
9035;BME280;4552;43.422;24.592;2023-04-02T07:26:31;99055.44;;;15.23;56.89
9035;BME280;4552;43.422;24.592;2023-04-02T07:28:58;99070.06;;;15.11;55.67
9035;BME280;4552;43.422;24.592;2023-04-02T07:32:00;99082.88;;;15.19;56.10
9035;BME280;4552;43.422;24.592;2023-04-02T07:34:27;99070.28;;;15.44;57.03
9035;BME280;4552;43.422;24.592;2023-04-02T07:36:54;99085.44;;;15.40;57.54
9035;BME280;4552;43.422;24.592;2023-04-02T07:39:23;99058.25;;;15.38;56.16
9035;BME280;4552;43.422;24.592;2023-04-02T07:41:53;99073.53;;;15.30;56.94
9035;BME280;4552;43.422;24.592;2023-04-02T07:44:22;99072.97;;;15.24;56.90
9035;BME280;4552;43.422;24.592;2023-04-02T07:46:50;99067.84;;;15.21;57.01
9035;BME280;4552;43.422;24.592;2023-04-02T07:49:19;99072.88;;;15.25;56.68
9035;BME280;4552;43.422;24.592;2023-04-02T07:51:46;99064.31;;;15.40;57.64
9035;BME280;4552;43.422;24.592;2023-04-02T07:54:13;99057.59;;;15.52;58.09
9035;BME280;4552;43.422;24.592;2023-04-02T07:56:42;99073.97;;;15.77;57.25
9035;BME280;4552;43.422;24.592;2023-04-02T07:59:12;99061.06;;;15.71;56.20
9035;BME280;4552;43.422;24.592;2023-04-02T08:01:39;99063.00;;;15.68;56.86
9035;BME280;4552;43.422;24.592;2023-04-02T08:04:15;99062.34;;;15.81;57.75
9035;BME280;4552;43.422;24.592;2023-04-02T08:06:50;99085.63;;;15.90;55.99
9035;BME280;4552;43.422;24.592;2023-04-02T08:09:17;99062.78;;;15.72;55.72
9035;BME280;4552;43.422;24.592;2023-04-02T08:25:20;99054.75;;;15.92;57.57
9035;BME280;4552;43.422;24.592;2023-04-02T08:31:14;99059.31;;;15.89;56.88
9035;BME280;4552;43.422;24.592;2023-04-02T08:33:48;99076.84;;;15.90;56.32
9035;BME280;4552;43.422;24.592;2023-04-02T08:36:26;99071.50;;;15.91;55.96
9035;BME280;4552;43.422;24.592;2023-04-02T08:38:55;99080.28;;;15.92;55.71
9035;BME280;4552;43.422;24.592;2023-04-02T08:41:25;99073.94;;;16.13;54.33
9035;BME280;4552;43.422;24.592;2023-04-02T08:44:08;99093.97;;;16.34;53.75
9035;BME280;4552;43.422;24.592;2023-04-02T08:46:43;99079.94;;;16.33;54.42
9035;BME280;4552;43.422;24.592;2023-04-02T08:49:14;99089.53;;;16.53;53.10
9035;BME280;4552;43.422;24.592;2023-04-02T08:51:43;99089.53;;;16.53;51.95
9035;BME280;4552;43.422;24.592;2023-04-02T08:54:15;99090.16;;;16.58;51.72
9035;BME280;4552;43.422;24.592;2023-04-02T08:56:50;99089.41;;;16.37;51.08
9035;BME280;4552;43.422;24.592;2023-04-02T08:59:29;99082.63;;;16.50;51.44
9035;BME280;4552;43.422;24.592;2023-04-02T09:29:00;99100.47;;;16.45;49.91
9035;BME280;4552;43.422;24.592;2023-04-02T09:35:27;99099.69;;;16.77;48.05
9035;BME280;4552;43.422;24.592;2023-04-02T09:38:17;99098.69;;;17.12;47.58
9035;BME280;4552;43.422;24.592;2023-04-02T09:40:48;99100.19;;;17.01;46.64
9035;BME280;4552;43.422;24.592;2023-04-02T09:43:16;99092.81;;;17.23;46.85
9035;BME280;4552;43.422;24.592;2023-04-02T09:45:57;99101.00;;;17.18;45.48
9035;BME280;4552;43.422;24.592;2023-04-02T09:48:26;99106.22;;;17.36;46.36
9035;BME280;4552;43.422;24.592;2023-04-02T09:51:14;99089.88;;;17.45;46.12
9035;BME280;4552;43.422;24.592;2023-04-02T09:53:43;99098.59;;;17.93;47.11
9035;BME280;4552;43.422;24.592;2023-04-02T09:56:15;99100.41;;;18.38;45.34
9035;BME280;4552;43.422;24.592;2023-04-02T09:58:44;99090.78;;;18.51;45.16
9035;BME280;4552;43.422;24.592;2023-04-02T10:01:29;99108.84;;;17.84;44.13
9035;BME280;4552;43.422;24.592;2023-04-02T10:03:58;99089.22;;;17.72;46.26
9035;BME280;4552;43.422;24.592;2023-04-02T10:06:30;99108.47;;;18.05;44.62
9035;BME280;4552;43.422;24.592;2023-04-02T10:09:19;99090.47;;;17.81;43.18
9035;BME280;4552;43.422;24.592;2023-04-02T10:11:48;99081.78;;;17.48;44.16
9035;BME280;4552;43.422;24.592;2023-04-02T10:14:20;99082.66;;;17.31;44.81
9035;BME280;4552;43.422;24.592;2023-04-02T10:16:53;99090.84;;;17.26;45.40
9035;BME280;4552;43.422;24.592;2023-04-02T10:19:26;99083.13;;;17.06;46.04
9035;BME280;4552;43.422;24.592;2023-04-02T10:22:10;99092.06;;;17.37;46.92
9035;BME280;4552;43.422;24.592;2023-04-02T10:24:41;99085.28;;;17.48;47.08
9035;BME280;4552;43.422;24.592;2023-04-02T10:27:16;99090.50;;;17.65;47.42
9035;BME280;4552;43.422;24.592;2023-04-02T10:30:14;99085.22;;;17.33;46.29
9035;BME280;4552;43.422;24.592;2023-04-02T10:32:49;99079.44;;;17.42;47.06
9035;BME280;4552;43.422;24.592;2023-04-02T10:58:29;99085.25;;;18.10;43.62
9035;BME280;4552;43.422;24.592;2023-04-02T11:01:02;99071.69;;;18.46;44.34
9035;BME280;4552;43.422;24.592;2023-04-02T11:03:35;99081.03;;;18.81;42.00
9035;BME280;4552;43.422;24.592;2023-04-02T11:06:14;99075.00;;;18.63;39.95
9035;BME280;4552;43.422;24.592;2023-04-02T11:08:46;99082.47;;;18.43;40.98
9035;BME280;4552;43.422;24.592;2023-04-02T11:11:16;99077.16;;;18.43;41.36
9035;BME280;4552;43.422;24.592;2023-04-02T11:14:08;99082.63;;;18.40;39.89
9035;BME280;4552;43.422;24.592;2023-04-02T11:16:47;99085.78;;;18.60;40.29
9035;BME280;4552;43.422;24.592;2023-04-02T11:19:26;99072.78;;;18.26;41.22
9035;BME280;4552;43.422;24.592;2023-04-02T11:21:57;99063.88;;;18.13;41.96
9035;BME280;4552;43.422;24.592;2023-04-02T11:24:35;99076.31;;;18.27;41.11
9035;BME280;4552;43.422;24.592;2023-04-02T11:27:23;99084.28;;;18.56;40.25
9035;BME280;4552;43.422;24.592;2023-04-02T11:30:01;99073.88;;;18.81;40.45
9035;BME280;4552;43.422;24.592;2023-04-02T11:52:23;99083.19;;;18.74;41.01
9035;BME280;4552;43.422;24.592;2023-04-02T11:55:03;99075.81;;;18.79;39.42
9035;BME280;4552;43.422;24.592;2023-04-02T11:57:50;99069.63;;;18.65;38.64
9035;BME280;4552;43.422;24.592;2023-04-02T12:27:18;99062.09;;;19.01;37.67
9035;BME280;4552;43.422;24.592;2023-04-02T12:30:11;99050.13;;;19.08;37.76
9035;BME280;4552;43.422;24.592;2023-04-02T12:32:39;99060.72;;;19.50;38.20
9035;BME280;4552;43.422;24.592;2023-04-02T12:35:25;99044.25;;;19.45;37.43
9035;BME280;4552;43.422;24.592;2023-04-02T12:37:53;99038.47;;;19.25;37.74
9035;BME280;4552;43.422;24.592;2023-04-02T12:40:20;99041.81;;;19.28;37.01
9035;BME280;4552;43.422;24.592;2023-04-02T12:42:57;99039.53;;;19.08;37.15
9035;BME280;4552;43.422;24.592;2023-04-02T12:45:35;99054.13;;;19.01;37.87
9035;BME280;4552;43.422;24.592;2023-04-02T12:48:12;99050.63;;;19.15;38.73
9035;BME280;4552;43.422;24.592;2023-04-02T12:50:39;99046.38;;;18.98;38.98
9035;BME280;4552;43.422;24.592;2023-04-02T12:53:17;99051.00;;;19.37;38.95
9035;BME280;4552;43.422;24.592;2023-04-02T12:55:49;99050.53;;;19.30;38.41
9035;BME280;4552;43.422;24.592;2023-04-02T12:58:34;99037.88;;;19.20;37.92
9035;BME280;4552;43.422;24.592;2023-04-02T13:28:36;99057.31;;;18.92;39.15
9035;BME280;4552;43.422;24.592;2023-04-02T13:31:04;99039.72;;;18.91;39.80
9035;BME280;4552;43.422;24.592;2023-04-02T13:33:32;99041.03;;;19.12;39.62
9035;BME280;4552;43.422;24.592;2023-04-02T13:35:59;99058.38;;;19.04;39.23
9035;BME280;4552;43.422;24.592;2023-04-02T13:38:28;99041.97;;;18.97;39.23
9035;BME280;4552;43.422;24.592;2023-04-02T13:40:55;99033.16;;;19.11;39.59
9035;BME280;4552;43.422;24.592;2023-04-02T13:43:24;99048.44;;;18.93;39.16
9035;BME280;4552;43.422;24.592;2023-04-02T14:12:27;99034.69;;;18.86;39.24
9035;BME280;4552;43.422;24.592;2023-04-02T14:15:07;99035.19;;;19.07;39.31
9035;BME280;4552;43.422;24.592;2023-04-02T14:17:49;99038.03;;;19.04;38.42
9035;BME280;4552;43.422;24.592;2023-04-02T14:20:52;99030.59;;;19.09;38.63
9035;BME280;4552;43.422;24.592;2023-04-02T14:23:48;99040.88;;;18.87;39.21
9035;BME280;4552;43.422;24.592;2023-04-02T14:26:27;99031.94;;;18.74;39.90
9035;BME280;4552;43.422;24.592;2023-04-02T14:29:12;99020.97;;;18.66;40.03
9035;BME280;4552;43.422;24.592;2023-04-02T14:31:45;99036.69;;;18.69;39.79
9035;BME280;4552;43.422;24.592;2023-04-02T14:34:16;99026.91;;;18.69;39.68
9035;BME280;4552;43.422;24.592;2023-04-02T14:36:54;99031.75;;;18.63;39.49
9035;BME280;4552;43.422;24.592;2023-04-02T14:39:38;99015.00;;;18.62;38.00
9035;BME280;4552;43.422;24.592;2023-04-02T14:42:11;99029.84;;;18.65;37.36
9035;BME280;4552;43.422;24.592;2023-04-02T14:45:02;99037.06;;;18.63;37.84
9035;BME280;4552;43.422;24.592;2023-04-02T14:47:36;99021.69;;;18.40;38.70
9035;BME280;4552;43.422;24.592;2023-04-02T14:50:11;99039.31;;;18.55;39.17
9035;BME280;4552;43.422;24.592;2023-04-02T14:52:41;99031.56;;;18.66;39.48
9035;BME280;4552;43.422;24.592;2023-04-02T14:55:20;99021.41;;;18.58;39.89
9035;BME280;4552;43.422;24.592;2023-04-02T15:25:43;99032.78;;;18.60;39.19
9035;BME280;4552;43.422;24.592;2023-04-02T15:28:22;99039.88;;;18.60;39.64
9035;BME280;4552;43.422;24.592;2023-04-02T15:54:49;99042.00;;;18.10;41.08
9035;BME280;4552;43.422;24.592;2023-04-02T15:57:36;99050.16;;;18.21;41.02
9035;BME280;4552;43.422;24.592;2023-04-02T16:00:26;99047.28;;;18.10;41.12
9035;BME280;4552;43.422;24.592;2023-04-02T16:03:19;99055.31;;;18.08;41.54
9035;BME280;4552;43.422;24.592;2023-04-02T16:05:56;99066.25;;;18.18;41.98
9035;BME280;4552;43.422;24.592;2023-04-02T16:08:38;99064.72;;;18.14;41.80
9035;BME280;4552;43.422;24.592;2023-04-02T16:11:19;99065.75;;;17.96;42.40
9035;BME280;4552;43.422;24.592;2023-04-02T16:14:12;99060.34;;;17.83;42.50
9035;BME280;4552;43.422;24.592;2023-04-02T16:23:28;99068.47;;;17.65;43.94
9035;BME280;4552;43.422;24.592;2023-04-02T16:26:04;99072.72;;;17.67;43.77
9035;BME280;4552;43.422;24.592;2023-04-02T16:28:45;99076.91;;;17.71;43.15
9035;BME280;4552;43.422;24.592;2023-04-02T16:31:37;99077.09;;;17.53;43.85
9035;BME280;4552;43.422;24.592;2023-04-02T16:34:12;99084.25;;;17.51;44.09
9035;BME280;4552;43.422;24.592;2023-04-02T16:36:47;99076.06;;;17.71;43.63
9035;BME280;4552;43.422;24.592;2023-04-02T16:39:26;99083.22;;;17.53;44.71
9035;BME280;4552;43.422;24.592;2023-04-02T16:42:04;99083.44;;;17.33;44.83
9035;BME280;4552;43.422;24.592;2023-04-02T16:44:46;99093.66;;;17.23;45.72
9035;BME280;4552;43.422;24.592;2023-04-02T16:57:31;99089.75;;;16.65;47.73
9035;BME280;4552;43.422;24.592;2023-04-02T17:00:16;99089.56;;;16.34;48.64
9035;BME280;4552;43.422;24.592;2023-04-02T17:06:08;99100.66;;;16.24;49.23
9035;BME280;4552;43.422;24.592;2023-04-02T17:08:45;99086.72;;;16.03;49.21
9035;BME280;4552;43.422;24.592;2023-04-02T17:11:39;99101.25;;;15.95;49.24
9035;BME280;4552;43.422;24.592;2023-04-02T17:14:15;99094.16;;;15.78;50.41
9035;BME280;4552;43.422;24.592;2023-04-02T17:17:04;99097.22;;;15.69;50.64
9035;BME280;4552;43.422;24.592;2023-04-02T17:19:44;99086.97;;;15.44;50.95
9035;BME280;4552;43.422;24.592;2023-04-02T17:22:17;99102.09;;;15.41;51.52
9035;BME280;4552;43.422;24.592;2023-04-02T17:24:48;99109.19;;;15.39;51.32
9035;BME280;4552;43.422;24.592;2023-04-02T17:27:22;99097.84;;;15.37;51.72
9035;BME280;4552;43.422;24.592;2023-04-02T17:30:12;99111.66;;;15.43;51.59
9035;BME280;4552;43.422;24.592;2023-04-02T17:32:48;99120.41;;;15.24;51.15
9035;BME280;4552;43.422;24.592;2023-04-02T17:35:27;99123.72;;;15.29;51.19
9035;BME280;4552;43.422;24.592;2023-04-02T17:38:06;99128.13;;;15.28;51.44
9035;BME280;4552;43.422;24.592;2023-04-02T17:40:38;99126.88;;;15.37;51.08
9035;BME280;4552;43.422;24.592;2023-04-02T17:43:14;99138.28;;;15.37;51.59
9035;BME280;4552;43.422;24.592;2023-04-02T17:45:48;99143.78;;;15.51;51.14
9035;BME280;4552;43.422;24.592;2023-04-02T17:58:39;99174.78;;;15.08;53.37
9035;BME280;4552;43.422;24.592;2023-04-02T18:11:24;99186.63;;;14.58;56.59
9035;BME280;4552;43.422;24.592;2023-04-02T18:14:16;99183.84;;;14.41;57.91
9035;BME280;4552;43.422;24.592;2023-04-02T18:23:57;99209.38;;;13.94;61.42
9035;BME280;4552;43.422;24.592;2023-04-02T18:26:34;99203.03;;;14.00;61.23
9035;BME280;4552;43.422;24.592;2023-04-02T18:29:30;99210.41;;;13.90;61.24
9035;BME280;4552;43.422;24.592;2023-04-02T18:32:17;99206.16;;;13.87;61.81
9035;BME280;4552;43.422;24.592;2023-04-02T18:34:59;99217.03;;;14.00;62.14
9035;BME280;4552;43.422;24.592;2023-04-02T18:37:35;99206.16;;;13.64;62.93
9035;BME280;4552;43.422;24.592;2023-04-02T18:40:19;99223.59;;;13.67;64.17
9035;BME280;4552;43.422;24.592;2023-04-02T18:42:59;99228.19;;;13.60;63.93
9035;BME280;4552;43.422;24.592;2023-04-02T18:45:36;99223.88;;;13.59;63.83
9035;BME280;4552;43.422;24.592;2023-04-02T18:48:33;99232.91;;;13.52;64.16
9035;BME280;4552;43.422;24.592;2023-04-02T18:51:09;99233.97;;;13.47;64.43
9035;BME280;4552;43.422;24.592;2023-04-02T18:53:42;99229.94;;;13.38;65.13
9035;BME280;4552;43.422;24.592;2023-04-02T18:56:12;99233.88;;;13.25;65.61
9035;BME280;4552;43.422;24.592;2023-04-02T18:58:55;99245.91;;;13.32;65.68
9035;BME280;4552;43.422;24.592;2023-04-02T19:01:37;99228.97;;;13.16;66.78
9035;BME280;4552;43.422;24.592;2023-04-02T19:04:31;99248.72;;;13.28;66.44
9035;BME280;4552;43.422;24.592;2023-04-02T19:07:03;99238.66;;;13.14;66.59
9035;BME280;4552;43.422;24.592;2023-04-02T19:09:33;99232.94;;;13.03;66.84
9035;BME280;4552;43.422;24.592;2023-04-02T19:12:13;99244.63;;;12.93;68.87
9035;BME280;4552;43.422;24.592;2023-04-02T19:14:51;99245.16;;;13.04;67.88
9035;BME280;4552;43.422;24.592;2023-04-02T19:17:27;99255.56;;;13.07;67.42
9035;BME280;4552;43.422;24.592;2023-04-02T19:20:18;99260.56;;;12.89;68.11
9035;BME280;4552;43.422;24.592;2023-04-02T19:22:52;99258.41;;;12.75;68.44
9035;BME280;4552;43.422;24.592;2023-04-02T19:25:38;99259.38;;;12.73;68.73
9035;BME280;4552;43.422;24.592;2023-04-02T19:28:12;99254.88;;;12.49;69.80
9035;BME280;4552;43.422;24.592;2023-04-02T19:31:06;99272.28;;;12.53;70.68
9035;BME280;4552;43.422;24.592;2023-04-02T19:43:42;99261.94;;;12.74;67.58
9035;BME280;4552;43.422;24.592;2023-04-02T19:46:09;99267.78;;;12.82;67.32
9035;BME280;4552;43.422;24.592;2023-04-02T19:51:58;99274.81;;;12.82;67.80
9035;BME280;4552;43.422;24.592;2023-04-02T19:54:39;99284.97;;;12.66;69.01
9035;BME280;4552;43.422;24.592;2023-04-02T19:57:06;99287.47;;;12.69;68.77
9035;BME280;4552;43.422;24.592;2023-04-02T19:59:35;99282.19;;;12.43;69.57
9035;BME280;4552;43.422;24.592;2023-04-02T20:02:05;99293.13;;;12.57;68.97
9035;BME280;4552;43.422;24.592;2023-04-02T20:04:34;99286.28;;;12.53;68.70
9035;BME280;4552;43.422;24.592;2023-04-02T20:07:04;99293.88;;;12.35;69.29
9035;BME280;4552;43.422;24.592;2023-04-02T20:09:34;99290.19;;;12.40;69.43
9035;BME280;4552;43.422;24.592;2023-04-02T20:12:01;99301.69;;;12.36;69.53
9035;BME280;4552;43.422;24.592;2023-04-02T20:14:39;99279.78;;;12.09;70.71
9035;BME280;4552;43.422;24.592;2023-04-02T20:17:07;99290.22;;;12.11;71.02
9035;BME280;4552;43.422;24.592;2023-04-02T20:19:34;99298.72;;;12.19;70.62
9035;BME280;4552;43.422;24.592;2023-04-02T20:22:01;99303.19;;;12.71;68.82
9035;BME280;4552;43.422;24.592;2023-04-02T20:24:28;99299.00;;;12.38;69.17
9035;BME280;4552;43.422;24.592;2023-04-02T20:26:55;99300.53;;;12.45;69.66
9035;BME280;4552;43.422;24.592;2023-04-02T20:29:22;99302.34;;;12.43;69.13
9035;BME280;4552;43.422;24.592;2023-04-02T20:55:27;99286.09;;;12.32;67.87
9035;BME280;4552;43.422;24.592;2023-04-02T20:57:54;99285.13;;;12.34;67.58
9035;BME280;4552;43.422;24.592;2023-04-02T21:00:21;99294.06;;;12.29;67.62
9035;BME280;4552;43.422;24.592;2023-04-02T21:06:16;99304.47;;;12.02;69.01
9035;BME280;4552;43.422;24.592;2023-04-02T21:08:43;99303.84;;;11.94;69.16
9035;BME280;4552;43.422;24.592;2023-04-02T21:11:12;99305.19;;;12.07;69.18
9035;BME280;4552;43.422;24.592;2023-04-02T21:13:40;99281.91;;;11.97;68.33
9035;BME280;4552;43.422;24.592;2023-04-02T21:16:12;99292.09;;;12.06;68.48
9035;BME280;4552;43.422;24.592;2023-04-02T21:37:18;99293.19;;;11.70;70.07
9035;BME280;4552;43.422;24.592;2023-04-02T21:39:48;99317.63;;;11.72;70.64
9035;BME280;4552;43.422;24.592;2023-04-02T21:42:17;99320.31;;;11.69;71.31
9035;BME280;4552;43.422;24.592;2023-04-02T21:44:44;99310.84;;;11.62;71.45
9035;BME280;4552;43.422;24.592;2023-04-02T21:47:11;99307.59;;;11.54;71.90